Time;durP1;ratioP1;P1;durP2;ratioP2;P2;SDS_P1;SDS_P2;PMS_P1;PMS_P2;Temp;Humidity;BMP_temperature;BMP_pressure;BME280_temperature;BME280_humidity;BME280_pressure;Samples;Min_cycle;Max_cycle;Signal;HPM_P1;HPM_P2
2021/06/11 00:01:10;;;;;;;;;;;16.70;99.90;;;15.47;83.30;95998.66;10463085;28;1957;-80
2021/06/11 00:06:12;;;;;;;;;;;16.60;99.90;;;15.34;84.55;96004.84;10475298;28;2215;-82
2021/06/11 00:11:15;;;;;;;;;;;16.40;99.90;;;15.19;85.06;96008.63;10454778;28;2058;-83
2021/06/11 00:16:18;;;;;;;;;;;16.30;99.90;;;15.08;85.68;96002.59;10488872;28;2137;-83
2021/06/11 00:21:20;;;;;;;;;;;16.20;99.90;;;14.97;86.21;95998.44;10487146;28;2063;-84
2021/06/11 00:26:24;;;;;;;;;;;16.10;99.90;;;14.89;87.02;95999.13;10493911;28;2045;-82
2021/06/11 00:31:30;;;;;;;;;;;16.00;99.90;;;14.88;88.05;95995.56;10521727;28;1585;-82
2021/06/11 00:36:32;;;;;;;;;;;16.00;99.90;;;14.84;88.36;96002.69;10474964;28;2353;-81
2021/06/11 00:41:35;;;;;;;;;;;16.00;99.90;;;14.73;89.28;96005.84;10478196;28;2155;-81
2021/06/11 00:46:37;;;;;;;;;;;15.90;99.90;;;14.70;89.74;96001.84;10490178;28;2040;-82
2021/06/11 00:51:39;;;;;;;;;;;15.80;99.90;;;14.68;89.74;96003.22;10495858;28;1842;-82
2021/06/11 00:56:42;;;;;;;;;;;15.70;99.90;;;14.70;89.73;95995.63;10478592;28;2176;-83
2021/06/11 01:01:44;;;;;;;;;;;15.70;99.90;;;14.83;89.69;96000.28;10466805;28;2143;-81
2021/06/11 01:06:47;;;;;;;;;;;15.80;99.90;;;14.96;88.02;95983.28;10479568;28;2237;-81
2021/06/11 01:11:49;;;;;;;;;;;15.90;99.90;;;14.97;88.67;95984.91;10477945;28;1737;-80
2021/06/11 01:16:51;;;;;;;;;;;15.90;99.90;;;15.08;88.19;95985.53;10486645;28;2135;-79
2021/06/11 01:21:54;;;;;;;;;;;16.00;99.90;;;15.15;87.81;95983.25;10470581;28;1610;-82
2021/06/11 01:26:56;;;;;;;;;;;16.10;99.90;;;15.19;87.83;95980.72;10479034;28;2139;-83
2021/06/11 01:31:59;;;;;;;;;;;16.00;99.90;;;15.17;87.68;95991.88;10468894;28;2181;-82
2021/06/11 01:37:01;;;;;;;;;;;16.10;99.90;;;15.22;87.76;95980.16;10461799;28;2082;-83
2021/06/11 01:42:03;;;;;;;;;;;16.10;99.90;;;15.20;87.60;95980.44;10477940;28;1974;-82
2021/06/11 01:47:06;;;;;;;;;;;16.10;99.90;;;15.27;87.56;95974.63;10471299;28;2190;-82
2021/06/11 01:52:08;;;;;;;;;;;16.10;99.90;;;15.30;87.80;95971.34;10473332;28;2084;-83
2021/06/11 01:57:11;;;;;;;;;;;16.20;99.90;;;15.36;87.69;95970.94;10455474;28;2107;-82
2021/06/11 02:02:13;;;;;;;;;;;16.30;99.90;;;15.39;87.38;95970.31;10466656;28;2075;-82
2021/06/11 02:07:15;;;;;;;;;;;16.30;99.90;;;15.49;86.60;95960.41;10460972;28;1926;-82
2021/06/11 02:12:18;;;;;;;;;;;16.40;99.90;;;15.45;86.72;95965.63;10491054;28;1332;-81
2021/06/11 02:17:20;;;;;;;;;;;16.40;99.90;;;15.39;87.13;95964.13;10483505;28;1765;-82
2021/06/11 02:22:23;;;;;;;;;;;16.40;99.90;;;15.30;87.75;95952.38;10490515;28;2103;-82
2021/06/11 02:27:25;;;;;;;;;;;16.30;99.90;;;15.24;87.57;95956.28;10473217;28;1918;-81
2021/06/11 02:32:34;;;;;;;;;;;16.30;99.90;;;15.12;88.12;95957.56;10485288;28;2113;-84
2021/06/11 02:37:36;;;;;;;;;;;16.20;99.90;;;15.05;88.40;95959.84;10500658;28;2056;-81
2021/06/11 02:42:50;;;;;;;;;;;16.10;99.90;;;14.96;88.97;95958.13;10471229;28;2065;-81
2021/06/11 02:47:53;;;;;;;;;;;16.00;99.90;;;14.89;89.24;95961.22;10492794;28;2160;-81
2021/06/11 02:52:56;;;;;;;;;;;16.00;99.90;;;14.81;89.56;95956.47;10491483;28;2147;-82
2021/06/11 02:57:58;;;;;;;;;;;15.90;99.90;;;14.74;89.84;95973.06;10466024;28;2250;-82
2021/06/11 03:03:06;;;;;;;;;;;15.90;99.90;;;14.70;90.43;95974.78;10456090;28;2113;-83
2021/06/11 03:08:13;;;;;;;;;;;15.80;99.90;;;14.72;90.26;95978.00;10463617;28;1890;-82
2021/06/11 03:13:16;;;;;;;;;;;15.80;99.90;;;14.68;90.41;95981.56;10486637;28;2004;-80
2021/06/11 03:18:24;;;;;;;;;;;15.70;99.90;;;14.70;90.02;95979.41;10467341;28;2040;-81
2021/06/11 03:23:41;;;;;;;;;;;15.70;99.90;;;14.64;89.92;95986.78;10474757;28;2172;-82
2021/06/11 03:28:46;;;;;;;;;;;15.70;99.90;;;14.62;90.92;95994.38;10461591;28;2097;-82
2021/06/11 03:33:48;;;;;;;;;;;15.70;99.90;;;14.65;89.89;95987.59;10497411;28;1053;-83
2021/06/11 03:38:51;;;;;;;;;;;15.70;99.90;;;14.59;90.68;95990.38;10476796;28;1812;-82
2021/06/11 03:43:55;;;;;;;;;;;15.60;99.90;;;14.56;90.84;95996.34;10490681;28;2007;-81
2021/06/11 03:49:08;;;;;;;;;;;15.60;99.90;;;14.68;91.55;95992.41;10489406;28;2000;-81
2021/06/11 03:54:10;;;;;;;;;;;15.60;99.90;;;14.82;90.05;95998.66;10481711;28;2135;-83
2021/06/11 03:59:12;;;;;;;;;;;15.70;99.90;;;14.90;89.31;96000.72;10490670;28;2113;-82
2021/06/11 04:04:15;;;;;;;;;;;15.80;99.90;;;15.08;88.53;96004.50;10463133;28;2211;-82
2021/06/11 04:09:20;;;;;;;;;;;15.90;99.90;;;15.40;87.61;95992.84;10444998;23;2102;-83
2021/06/11 04:14:34;;;;;;;;;;;16.00;99.90;;;15.91;85.14;96000.03;10445159;28;2142;-82
2021/06/11 04:19:56;;;;;;;;;;;16.30;99.90;;;16.53;81.54;95999.50;10431370;28;2123;-80
2021/06/11 04:24:59;;;;;;;;;;;16.90;99.90;;;16.65;80.82;96005.22;10446428;28;2091;-80
2021/06/11 04:30:03;;;;;;;;;;;17.20;99.90;;;16.67;81.09;96009.25;10459385;28;2028;-83
2021/06/11 04:35:14;;;;;;;;;;;17.40;99.90;;;16.68;80.23;96010.84;10459857;28;2115;-81
2021/06/11 04:40:20;;;;;;;;;;;17.40;99.90;;;16.93;79.45;96008.69;10470471;28;1261;-83
2021/06/11 04:45:37;;;;;;;;;;;17.50;99.90;;;16.86;79.90;96016.41;10456347;28;2176;-80
2021/06/11 04:50:43;;;;;;;;;;;17.60;99.90;;;17.39;77.91;96019.19;10481513;28;2082;-82
2021/06/11 04:55:54;;;;;;;;;;;17.80;99.90;;;17.87;74.49;96015.78;10470362;28;2043;-82
2021/06/11 05:01:19;;;;;;;;;;;18.30;99.90;;;18.23;72.44;96023.75;10479951;28;2028;-80
2021/06/11 05:06:37;;;;;;;;;;;18.60;99.90;;;18.28;72.99;96031.78;10484005;28;2145;-82
2021/06/11 05:11:54;;;;;;;;;;;18.90;99.90;;;18.84;70.30;96029.31;10475388;28;2177;-81
2021/06/11 05:17:07;;;;;;;;;;;19.10;99.90;;;19.04;68.62;96028.69;10473839;28;2069;-81
2021/06/11 05:22:12;;;;;;;;;;;19.50;99.90;;;19.49;67.08;96033.75;10461264;28;2245;-82
2021/06/11 05:27:17;;;;;;;;;;;19.90;99.90;;;19.11;68.21;96039.09;10488986;28;1914;-82
2021/06/11 05:33:06;;;;;;;;;;;19.90;99.90;;;18.84;68.46;96038.28;10479660;28;2190;-81
2021/06/11 05:38:38;;;;;;;;;;;19.80;99.90;;;19.68;66.32;96030.69;10495844;28;1424;-81
2021/06/11 05:43:55;;;;;;;;;;;20.00;99.90;;;19.92;64.79;96030.13;10468454;28;2136;-81
2021/06/11 05:49:08;;;;;;;;;;;20.40;99.90;;;20.04;64.56;96034.88;10461623;28;2010;-83
2021/06/11 05:54:10;;;;;;;;;;;20.60;99.90;;;19.90;64.46;96027.72;10467659;28;2146;-83
2021/06/11 05:59:12;;;;;;;;;;;20.70;99.90;;;20.08;63.48;96033.09;10471059;28;1984;-82
2021/06/11 06:04:15;;;;;;;;;;;20.70;99.90;;;20.07;63.17;96031.50;10489907;28;1853;-81
2021/06/11 06:09:17;;;;;;;;;;;20.80;99.90;;;20.89;60.28;96041.00;10485376;28;1995;-83
2021/06/11 06:14:20;;;;;;;;;;;21.10;99.90;;;21.15;59.04;96038.06;10467187;28;1814;-83
2021/06/11 06:19:23;;;;;;;;;;;21.50;99.90;;;21.16;59.32;96038.84;10459036;28;2067;-82
2021/06/11 06:24:26;;;;;;;;;;;21.70;99.90;;;20.98;59.86;96036.25;10469362;28;1944;-82
2021/06/11 06:29:28;;;;;;;;;;;21.50;99.90;;;21.29;57.15;96029.59;10455907;28;2044;-80
2021/06/11 06:34:30;;;;;;;;;;;21.60;99.90;;;21.50;57.88;96037.75;10485727;28;1900;-84
2021/06/11 06:39:42;;;;;;;;;;;21.80;99.90;;;21.36;56.08;96038.06;10518604;28;1681;-81
2021/06/11 06:45:13;;;;;;;;;;;22.00;99.90;;;21.70;55.27;96041.59;10505958;28;1964;-85
2021/06/11 06:50:27;;;;;;;;;;;22.10;99.90;;;22.09;54.83;96032.78;10486521;28;1321;-81
2021/06/11 06:55:37;;;;;;;;;;;22.40;99.90;;;21.74;52.50;96031.56;10468419;28;1939;-81
2021/06/11 07:00:49;;;;;;;;;;;22.40;99.90;;;21.43;52.13;96021.91;10480409;28;2128;-80
2021/06/11 07:05:58;;;;;;;;;;;22.10;99.90;;;21.28;53.82;96030.72;10489280;28;2289;-80
2021/06/11 07:16:37;;;;;;;;;;;22.60;99.90;;;22.22;50.74;96038.28;10440861;28;2253;-80
2021/06/11 07:21:40;;;;;;;;;;;22.70;99.90;;;22.58;50.67;96030.03;10465869;28;2250;-80
2021/06/11 07:26:53;;;;;;;;;;;22.90;99.90;;;22.12;53.11;96039.50;10464211;28;2066;-83
2021/06/11 07:32:03;;;;;;;;;;;22.80;99.90;;;21.92;51.31;96049.38;10487687;28;2059;-83
2021/06/11 07:37:15;;;;;;;;;;;22.80;99.90;;;22.31;50.51;96039.75;10499639;28;2172;-82
2021/06/11 07:42:17;;;;;;;;;;;22.70;99.90;;;22.70;50.22;96045.66;10489638;28;1780;-82
2021/06/11 07:47:20;;;;;;;;;;;23.00;99.90;;;22.65;50.00;96043.97;10496216;28;2187;-82
2021/06/11 07:52:22;;;;;;;;;;;23.20;99.90;;;22.50;50.95;96046.59;10494112;28;2128;-82
2021/06/11 07:57:25;;;;;;;;;;;23.30;99.90;;;22.87;49.30;96042.69;10471179;28;2255;-81
2021/06/11 08:02:27;;;;;;;;;;;23.40;99.90;;;23.19;49.38;96040.09;10465448;28;2095;-82
2021/06/11 08:07:30;;;;;;;;;;;23.60;99.90;;;23.23;47.74;96032.78;10491977;28;2154;-81
2021/06/11 08:12:35;;;;;;;;;;;23.90;99.90;;;22.75;48.20;96030.94;10470047;28;2141;-82
2021/06/11 08:17:39;;;;;;;;;;;23.80;99.90;;;22.98;48.41;96028.53;10451895;28;1989;-81
2021/06/11 08:22:42;;;;;;;;;;;23.70;99.90;;;22.88;47.26;96027.84;10465683;28;2122;-81
2021/06/11 08:27:46;;;;;;;;;;;23.60;99.90;;;23.20;45.89;96042.47;10454717;28;2310;-82
2021/06/11 08:32:49;;;;;;;;;;;23.80;99.90;;;23.09;43.81;96032.34;10457653;28;2151;-82
2021/06/11 08:37:52;;;;;;;;;;;23.80;99.90;;;23.14;44.37;96035.66;10456990;28;2193;-80
2021/06/11 08:42:59;;;;;;;;;;;23.80;99.90;;;22.84;44.28;96028.84;10474522;28;2101;-82
2021/06/11 08:48:04;;;;;;;;;;;23.60;99.90;;;23.55;44.81;96030.94;10453001;28;2127;-83
2021/06/11 08:53:09;;;;;;;;;;;23.80;99.90;;;23.81;42.59;96030.47;10443697;28;2099;-84
2021/06/11 08:58:11;;;;;;;;;;;24.30;99.90;;;23.85;42.63;96027.78;10476488;28;2073;-82
2021/06/11 09:03:14;;;;;;;;;;;24.50;99.90;;;23.65;40.87;96030.44;10483897;28;2056;-81
2021/06/11 09:08:18;;;;;;;;;;;24.30;98.40;;;23.91;41.69;96040.13;10491258;28;1997;-81
2021/06/11 09:13:21;;;;;;;;;;;24.30;99.30;;;23.59;40.97;96037.28;10472873;28;2093;-81
2021/06/11 09:18:27;;;;;;;;;;;24.50;97.10;;;24.44;41.11;96033.25;10446912;28;1986;-83
2021/06/11 09:23:29;;;;;;;;;;;24.70;98.00;;;23.94;41.90;96031.97;10471099;28;2108;-83
2021/06/11 09:28:33;;;;;;;;;;;24.80;96.30;;;24.44;39.46;96040.69;10462397;28;2318;-83
2021/06/11 09:33:35;;;;;;;;;;;24.90;95.50;;;23.91;38.79;96043.66;10472417;28;1844;-82
2021/06/11 09:38:38;;;;;;;;;;;24.80;92.20;;;23.89;40.76;96034.19;10483246;28;2220;-83
2021/06/11 09:43:40;;;;;;;;;;;24.60;93.40;;;23.69;42.43;96036.81;10491227;28;1905;-81
2021/06/11 09:48:51;;;;;;;;;;;24.70;94.50;;;24.44;40.50;96029.69;10487111;28;1965;-84
2021/06/11 09:54:15;;;;;;;;;;;24.90;93.90;;;24.33;40.21;96020.38;10495947;28;1851;-85
2021/06/11 09:59:19;;;;;;;;;;;25.10;92.50;;;24.36;39.20;96020.47;10479886;28;2163;-83
2021/06/11 10:04:33;;;;;;;;;;;25.00;90.70;;;24.52;39.29;96035.00;10492573;28;1608;-84
2021/06/11 10:09:49;;;;;;;;;;;25.10;90.90;;;24.35;39.36;96026.31;10489643;28;2199;-83
2021/06/11 10:14:51;;;;;;;;;;;25.10;90.00;;;23.71;41.35;96033.72;10495578;28;1636;-85
2021/06/11 10:19:54;;;;;;;;;;;24.70;90.50;;;23.79;40.93;96029.22;10492714;28;1962;-81
2021/06/11 10:25:00;;;;;;;;;;;24.60;91.00;;;24.04;38.50;96024.34;10473317;28;2001;-80
2021/06/11 10:30:18;;;;;;;;;;;24.60;89.00;;;25.06;36.06;96022.47;10471972;28;2189;-81
2021/06/11 10:35:22;;;;;;;;;;;25.30;86.30;;;25.79;35.51;96018.81;10464367;28;2203;-80
2021/06/11 10:40:25;;;;;;;;;;;26.20;84.60;;;24.94;38.18;96022.56;10477664;28;2121;-81
2021/06/11 10:45:40;;;;;;;;;;;26.40;84.10;;;24.60;38.39;96019.47;10465119;28;4384;-81
2021/06/11 10:50:43;;;;;;;;;;;26.10;83.70;;;24.04;39.34;96014.16;10488266;28;1374;-79
2021/06/11 10:56:02;;;;;;;;;;;25.60;83.60;;;24.35;38.89;96001.59;10498538;28;2206;-81
2021/06/11 11:01:18;;;;;;;;;;;25.20;84.90;;;26.40;34.50;95998.66;10495327;28;1897;-79
2021/06/11 11:06:53;;;;;;;;;;;27.10;82.60;;;27.17;32.80;95993.81;10487213;28;1893;-80
2021/06/11 11:12:07;;;;;;;;;;;28.70;77.50;;;27.76;31.69;95997.66;10481471;28;2025;-79
2021/06/11 11:22:30;;;;;;;;;;;29.40;73.10;;;25.37;35.21;95984.97;10464872;28;2049;-80
2021/06/11 11:27:33;;;;;;;;;;;27.70;73.00;;;26.20;32.55;95980.56;10462052;28;2158;-81
2021/06/11 11:33:08;;;;;;;;;;;28.00;72.20;;;26.75;32.97;95980.22;10446752;28;2111;-82
2021/06/11 11:49:43;;;;;;;;;;;27.60;73.40;;;26.22;31.56;95969.19;10424222;28;1915;-83
2021/06/11 11:55:14;;;;;;;;;;;27.40;69.20;;;25.59;33.51;95965.75;10461909;22;1868;-83
2021/06/11 12:00:21;;;;;;;;;;;27.00;70.50;;;25.06;34.21;95961.94;10440042;28;2104;-81
2021/06/11 12:05:32;;;;;;;;;;;26.30;70.50;;;25.66;33.37;95951.31;10441212;28;1771;-81
2021/06/11 12:10:52;;;;;;;;;;;;;;;;;;;;;
2021/06/11 12:27:10;;;;;;;;;;;26.70;71.30;;;26.28;33.38;95934.63;10424607;28;2031;-83
2021/06/11 12:48:40;;;;;;;;;;;27.00;66.20;;;25.96;30.56;95917.59;10455521;28;2193;-82
2021/06/11 12:53:46;;;;;;;;;;;27.00;65.80;;;26.74;31.83;95913.25;10454685;28;1860;-82
2021/06/11 12:58:52;;;;;;;;;;;27.40;67.70;;;26.93;30.52;95904.03;10438041;28;2066;-79
2021/06/11 13:04:32;;;;;;;;;;;27.80;65.60;;;25.57;33.94;95901.19;10455283;28;2081;-80
2021/06/11 13:09:41;;;;;;;;;;;26.90;67.50;;;25.80;34.92;95902.00;10460535;28;2390;-84
2021/06/11 13:20:19;;;;;;;;;;;27.00;68.60;;;26.65;32.64;95893.41;10442756;28;1924;-82
2021/06/11 13:26:35;;;;;;;;;;;27.40;68.50;;;26.28;33.45;95896.84;10448684;28;1960;-81
2021/06/11 13:43:34;;;;;;;;;;;26.60;70.30;;;25.13;37.17;95890.59;10593792;23;1994;-82
2021/06/11 14:05:27;;;;;;;;;;;26.70;68.10;;;25.48;33.62;95890.44;10447546;28;2014;-81
2021/06/11 14:10:37;;;;;;;;;;;26.70;67.00;;;25.82;33.25;95887.88;10425588;28;2052;-82
2021/06/11 14:21:26;;;;;;;;;;;27.10;67.20;;;25.85;32.56;95882.44;10444106;28;1862;-81
2021/06/11 14:32:44;;;;;;;;;;;27.20;66.00;;;26.20;32.35;95866.81;10462029;28;1512;-81
2021/06/11 14:37:54;;;;;;;;;;;27.40;65.40;;;25.20;34.46;95862.44;10446043;28;1853;-84
2021/06/11 14:42:59;;;;;;;;;;;26.80;66.30;;;25.65;33.02;95869.09;10436007;28;1986;-82
2021/06/11 14:48:02;;;;;;;;;;;26.60;66.00;;;26.02;32.76;95866.53;10442325;28;2036;-81
2021/06/11 14:53:09;;;;;;;;;;;26.90;65.90;;;26.22;32.68;95876.31;10448497;28;2133;-81
2021/06/11 14:58:12;;;;;;;;;;;27.00;66.20;;;25.20;34.84;95865.19;10447654;28;2017;-81
2021/06/11 15:03:15;;;;;;;;;;;26.60;66.60;;;24.60;36.62;95871.06;10422061;28;1786;-81
2021/06/11 15:08:17;;;;;;;;;;;25.90;68.60;;;24.86;35.92;95864.91;10417627;28;2068;-81
2021/06/11 15:13:23;;;;;;;;;;;25.90;68.40;;;24.84;34.59;95855.44;10425576;28;2087;-80
2021/06/11 15:18:26;;;;;;;;;;;25.80;67.50;;;25.39;33.96;95856.88;10425632;28;1607;-80
2021/06/11 15:23:32;;;;;;;;;;;26.20;67.20;;;25.20;34.59;95852.22;10448396;28;1532;-84
2021/06/11 15:28:36;;;;;;;;;;;26.10;67.40;;;24.80;34.26;95852.59;10442405;28;1921;-81
2021/06/11 15:57:23;;;;;;;;;;;25.90;68.00;;;24.41;36.77;95849.06;10371508;23;1847;-85
2021/06/11 16:08:30;;;;;;;;;;;25.20;70.40;;;24.48;37.86;95846.47;10407164;28;2076;-80
2021/06/11 16:13:41;;;;;;;;;;;25.10;71.80;;;24.35;38.74;95845.81;10383711;28;2183;-83
2021/06/11 16:18:52;;;;;;;;;;;25.30;71.80;;;24.89;37.38;95836.69;10372214;28;2114;-81
2021/06/11 16:24:30;;;;;;;;;;;25.40;71.70;;;24.97;37.65;95840.38;10378524;28;2311;-84
2021/06/11 16:29:38;;;;;;;;;;;25.70;71.50;;;24.60;38.58;95853.78;10370946;28;2220;-83
2021/06/11 16:34:45;;;;;;;;;;;25.70;71.60;;;24.44;38.27;95840.91;10360497;28;2235;-82
2021/06/11 16:40:03;;;;;;;;;;;25.50;71.70;;;24.43;39.23;95844.00;10393608;28;2085;-81
2021/06/11 16:45:25;;;;;;;;;;;25.30;72.90;;;24.28;40.11;95851.91;10378314;28;2086;-82
2021/06/11 16:50:47;;;;;;;;;;;25.30;73.70;;;24.11;40.25;95849.59;10376488;28;2239;-81
2021/06/11 16:55:53;;;;;;;;;;;25.10;74.00;;;24.07;39.47;95853.41;10387022;28;2062;-80
2021/06/11 17:01:49;;;;;;;;;;;;;;;;;;;;;
2021/06/11 17:07:16;;;;;;;;;;;25.00;73.50;;;24.10;39.17;95847.97;10381395;28;2046;-83
2021/06/11 17:12:39;;;;;;;;;;;25.00;73.20;;;24.02;39.16;95859.19;10409000;28;2141;-84
2021/06/11 17:18:15;;;;;;;;;;;24.80;73.00;;;23.87;39.18;95855.31;10400849;28;2054;-81
2021/06/11 17:23:34;;;;;;;;;;;24.70;73.20;;;23.65;40.19;95865.78;10390215;28;2280;-81
2021/06/11 17:28:49;;;;;;;;;;;24.60;73.90;;;23.71;40.74;95863.56;10388839;28;2242;-82
2021/06/11 17:34:45;;;;;;;;;;;24.60;74.40;;;23.81;40.55;95867.72;10407324;28;2091;-82
2021/06/11 17:40:08;;;;;;;;;;;24.60;74.80;;;23.77;41.17;95869.56;10384244;28;2076;-80
2021/06/11 17:45:12;;;;;;;;;;;24.70;75.30;;;23.53;41.93;95879.56;10388151;28;2020;-82
2021/06/11 17:56:07;;;;;;;;;;;24.40;76.90;;;23.38;42.47;95885.84;10366472;28;2462;-80
2021/06/11 18:01:24;;;;;;;;;;;24.20;76.80;;;23.24;42.94;95885.50;10374057;28;2084;-84
2021/06/11 18:06:57;;;;;;;;;;;24.20;77.00;;;23.06;43.36;95883.06;10375054;28;2177;-83
2021/06/11 18:12:35;;;;;;;;;;;24.10;77.40;;;23.17;43.54;95886.88;10392797;28;2137;-81
2021/06/11 18:17:51;;;;;;;;;;;24.00;78.10;;;23.09;43.94;95890.56;10378524;28;2134;-84
2021/06/11 18:29:29;;;;;;;;;;;23.90;78.70;;;22.79;45.08;95889.34;10437758;23;2076;-84
2021/06/11 18:35:10;;;;;;;;;;;23.80;79.30;;;22.63;45.50;95892.81;10416004;28;2107;-83
2021/06/11 18:40:45;;;;;;;;;;;23.70;79.80;;;22.35;46.55;95890.06;10335458;28;2156;-85
2021/06/11 18:46:03;;;;;;;;;;;23.50;80.70;;;22.21;46.71;95891.56;10405951;28;2275;-83
2021/06/11 18:51:38;;;;;;;;;;;23.30;81.10;;;22.09;47.37;95898.66;10410443;28;2070;-82
2021/06/11 19:03:10;;;;;;;;;;;23.00;82.30;;;21.61;49.06;95906.84;10321016;28;2031;-85
2021/06/11 19:08:30;;;;;;;;;;;22.80;83.20;;;21.52;49.61;95907.75;10425005;28;2149;-86
2021/06/11 19:13:48;;;;;;;;;;;22.70;83.90;;;21.27;50.82;95914.28;10440367;28;2055;-85
2021/06/11 19:18:53;;;;;;;;;;;22.60;85.00;;;21.09;50.52;95916.41;10438901;28;2116;-84
2021/06/11 19:23:59;;;;;;;;;;;22.30;84.90;;;20.95;51.37;95922.16;10444353;28;2017;-84
2021/06/11 19:29:06;;;;;;;;;;;22.20;85.60;;;20.91;51.58;95921.22;10428175;28;2142;-84
2021/06/11 19:34:15;;;;;;;;;;;22.10;86.10;;;20.82;52.06;95927.94;10414974;28;1620;-82
2021/06/11 19:45:30;;;;;;;;;;;22.00;87.40;;;20.51;53.95;95938.13;10402657;28;1331;-84
2021/06/11 19:50:33;;;;;;;;;;;21.90;88.70;;;20.38;54.15;95943.81;10413788;28;1915;-85
2021/06/11 19:55:51;;;;;;;;;;;21.70;89.10;;;20.36;55.18;95948.81;10427201;28;1380;-84
2021/06/11 20:01:09;;;;;;;;;;;;;;;;;;;;;
2021/06/11 20:06:26;;;;;;;;;;;21.30;91.90;;;19.97;57.36;95962.50;10729795;23;2087;-83
2021/06/11 20:11:42;;;;;;;;;;;21.20;92.90;;;19.90;58.51;95961.44;10437329;28;1061;-86
2021/06/11 20:16:53;;;;;;;;;;;21.10;94.20;;;19.85;58.58;95959.72;10429871;28;1688;-83
2021/06/11 20:22:14;;;;;;;;;;;20.90;94.70;;;19.86;58.87;95971.41;10441123;28;1460;-81
2021/06/11 20:27:16;;;;;;;;;;;20.90;95.70;;;19.92;59.05;95960.00;10431721;28;1957;-81
2021/06/11 20:32:19;;;;;;;;;;;20.90;96.30;;;19.86;59.27;95961.31;10426449;28;1440;-82
2021/06/11 20:37:21;;;;;;;;;;;20.90;96.60;;;19.77;59.75;95959.72;10427745;28;1617;-79
2021/06/11 20:42:24;;;;;;;;;;;20.80;96.80;;;19.69;59.64;95961.38;10427845;28;1062;-81
2021/06/11 20:47:26;;;;;;;;;;;20.70;97.20;;;19.62;60.53;95963.81;10392905;28;1992;-79
2021/06/11 20:52:28;;;;;;;;;;;20.70;97.90;;;19.59;60.49;95961.72;10407877;28;1121;-79
2021/06/11 20:57:30;;;;;;;;;;;20.60;98.60;;;19.50;60.50;95953.56;10414215;28;1621;-78
2021/06/11 21:02:33;;;;;;;;;;;20.50;98.90;;;19.33;58.87;95959.06;10439367;28;1342;-78
2021/06/11 21:07:35;;;;;;;;;;;20.40;97.50;;;19.28;60.04;95962.78;10450997;28;1887;-79
2021/06/11 21:12:38;;;;;;;;;;;20.30;98.10;;;19.30;62.24;95952.34;10436271;28;1125;-79
2021/06/11 21:17:41;;;;;;;;;;;20.30;99.90;;;19.24;62.43;95959.09;10393657;28;1651;-80
2021/06/11 21:22:44;;;;;;;;;;;20.30;99.90;;;19.02;62.98;95968.28;10428112;28;1550;-80
2021/06/11 21:27:46;;;;;;;;;;;20.20;99.90;;;18.86;64.32;95973.41;10425087;28;1952;-82
2021/06/11 21:32:48;;;;;;;;;;;20.00;99.90;;;18.90;63.68;95974.38;10415876;28;1492;-80
2021/06/11 21:37:51;;;;;;;;;;;19.90;99.90;;;18.71;64.12;95984.78;10393855;28;1532;-79
2021/06/11 21:42:53;;;;;;;;;;;19.90;99.90;;;18.78;64.57;95982.38;10417961;28;1645;-80
2021/06/11 21:47:56;;;;;;;;;;;19.80;99.90;;;18.75;64.73;95979.47;10411414;28;3297;-80
2021/06/11 21:52:59;;;;;;;;;;;19.80;99.90;;;18.60;64.43;95983.47;10419367;28;2134;-81
2021/06/11 21:58:01;;;;;;;;;;;19.70;99.90;;;18.54;65.09;95988.25;10423979;28;1964;-80
2021/06/11 22:03:03;;;;;;;;;;;19.60;99.90;;;18.47;65.55;95987.94;10421153;28;2290;-81
2021/06/11 22:08:06;;;;;;;;;;;19.50;99.90;;;18.44;65.75;95987.75;10422265;28;1910;-79
2021/06/11 22:13:08;;;;;;;;;;;19.50;99.90;;;18.39;66.19;95990.66;10426839;28;2224;-80
2021/06/11 22:18:10;;;;;;;;;;;19.40;99.90;;;18.48;65.78;95994.19;10418714;28;2091;-79
2021/06/11 22:23:12;;;;;;;;;;;19.40;99.90;;;18.33;66.91;96001.69;10433858;28;2107;-79
2021/06/11 22:28:14;;;;;;;;;;;19.30;99.90;;;18.23;66.93;95993.81;10436592;28;2025;-79
2021/06/11 22:33:17;;;;;;;;;;;19.30;99.90;;;18.32;67.08;95997.38;10450513;28;2240;-79
2021/06/11 22:38:19;;;;;;;;;;;19.30;99.90;;;18.21;67.32;95993.34;10428719;28;2121;-80
2021/06/11 22:43:23;;;;;;;;;;;19.30;99.90;;;18.21;67.37;95995.25;10437080;28;1980;-80
2021/06/11 22:48:26;;;;;;;;;;;19.20;99.90;;;18.11;67.58;96001.78;10408699;28;2200;-81
2021/06/11 22:53:33;;;;;;;;;;;19.20;99.90;;;18.07;67.30;95995.38;10414012;28;2137;-80
2021/06/11 22:58:35;;;;;;;;;;;18.10;99.90;;;17.95;67.39;95997.91;10450415;28;2119;-77
2021/06/11 23:03:37;;;;;;;;;;;19.00;99.90;;;17.98;66.75;95997.25;10435620;28;2077;-79
2021/06/11 23:08:39;;;;;;;;;;;19.00;99.90;;;17.87;67.48;95995.94;10425849;28;2267;-80
2021/06/11 23:13:42;;;;;;;;;;;18.90;99.90;;;17.78;66.90;96006.78;10430154;28;2156;-81
2021/06/11 23:18:44;;;;;;;;;;;18.80;99.90;;;17.85;67.15;95993.53;10412041;28;2260;-79
2021/06/11 23:23:47;;;;;;;;;;;18.80;99.90;;;17.83;66.43;96002.03;10411633;28;2692;-80
2021/06/11 23:28:49;;;;;;;;;;;18.80;99.90;;;17.83;66.12;96003.94;10441192;28;2155;-80
2021/06/11 23:33:51;;;;;;;;;;;18.80;99.90;;;17.71;65.85;95999.09;10417575;28;2107;-80
2021/06/11 23:38:53;;;;;;;;;;;18.60;99.90;;;17.79;65.90;95995.59;10449006;28;2103;-79
2021/06/11 23:43:56;;;;;;;;;;;18.70;99.90;;;17.73;65.96;95990.63;10426681;28;2299;-81
2021/06/11 23:48:58;;;;;;;;;;;18.80;99.90;;;17.78;66.33;95994.00;10443494;28;2103;-79
2021/06/11 23:54:00;;;;;;;;;;;18.70;99.90;;;17.69;65.94;95989.63;10424229;28;2107;-80
2021/06/11 23:59:02;;;;;;;;;;;18.70;99.90;;;17.63;66.42;95991.69;10414122;28;2080;-80
